Airfield :
LOGIN :

Register | Disclaimer

   EN    FR    IT 

 










Legend :    VFR   Marginal VFR   IFR   Intensive IFR   Very Intensive IFR
Visi :
Ceiling :
>= 8 km
>= 3000ft
5 to 8 km
1000 to 3000 ft
1500m to 5 km
500 to 1000 ft
800 to 1500m
200 to 500 ft
< 800m
< 200 ft
Symbols :   Thunderstorms  Fog  Heavy snow  Heavy precipitations  Wind > 20 kt
SIGMETs :     Misc.  Thunderstorms  Icing  Turbulence  Mountain Waves  Volcanic Ashes







- Airport Elevation : 220 ft
- IATA code : CWL
- Download approach charts


EGFF - Cardiff Rhoose

CURRENT METAR :
  • 222350Z AUTO 24011KT 9999 -RA SCT016 BKN024 BKN033 12/11 Q1018

EXPIRED METARs :
  • 222320Z AUTO 25010KT 9999 -RA BKN016 BKN021 OVC034 13/11 Q1018
  • 222250Z AUTO 25009KT 9999 BKN015 BKN019 BKN032 13/11 Q1018
  • 222220Z AUTO 27010KT 9999 FEW018 SCT029 OVC044 13/11 Q1018
  • 222150Z AUTO 26013KT 9999 SCT018 OVC046 13/10 Q1018
  • 222120Z AUTO 28010KT 9999 SCT021 BKN031 BKN039 12/10 Q1019

TAF TAF EGFF
Valid from the 23 at 00:00 until the 24 at 00:00 UTC


222254Z 2300/2324 28012KT 9999 BKN035
BECMG 2300/2302 22008KT 8000 -RA BKN014
TEMPO 2300/2311 4000 RA BR BKN005
PROB40
TEMPO 2308/2310 1200 BR BKN002
BECMG 2311/2313 28012KT 9999 NSW SCT025
BECMG 2313/2317 20005KT
TEMPO 2316/2324 8000 -RA BKN010
PROB30
TEMPO 2317/2324 3000 RADZ BR BKN002
ATIS : +44 1446 729 319
No reported NOTAMs for that airfield.



MET'MAP, your aeronautical weather chart ! - Copyright ORBIFLY December 2007 - Disclaimer

ORBIFLY MET'MAP TEAM :

Programming & Development : Alexandra Zaïnal
Concept & Development : Baudouin d'Aumeries
Co-Development & Prog : Marc-Olivier Méhu
Technical & hardware support : Manuel Goepfert

Contact : metmap@orbifly.com




SOURCES & CREDITS :

   NOAA